Time;durP1;ratioP1;P1;durP2;ratioP2;P2;SDS_P1;SDS_P2;PMS_P1;PMS_P2;Temp;Humidity;BMP_temperature;BMP_pressure;BME280_temperature;BME280_humidity;BME280_pressure;Samples;Min_cycle;Max_cycle;Signal;HPM_P1;HPM_P2
2023/05/27 00:01:34;;;;;;;7.32;2.95;;;;;;;15.38;46.70;101116.09;10308397;28;20053;-67
2023/05/27 00:06:36;;;;;;;8.55;2.72;;;;;;;15.35;47.40;101099.41;10296646;28;20472;-64
2023/05/27 00:11:37;;;;;;;10.75;3.38;;;;;;;15.52;46.82;101112.22;10308027;28;20838;-66
2023/05/27 00:16:38;;;;;;;9.27;3.58;;;;;;;15.40;47.09;101118.63;10309614;28;20153;-68
2023/05/27 00:21:40;;;;;;;6.20;2.70;;;;;;;15.31;47.22;101114.94;10318326;28;20061;-66
2023/05/27 00:26:42;;;;;;;6.82;2.78;;;;;;;15.33;46.99;101121.00;10307945;28;20057;-64
2023/05/27 00:31:43;;;;;;;8.30;3.05;;;;;;;15.43;47.08;101118.34;10309352;28;20141;-66
2023/05/27 00:36:45;;;;;;;9.77;3.28;;;;;;;15.43;47.34;101118.34;10310782;28;20065;-67
2023/05/27 00:41:49;;;;;;;7.47;2.67;;;;;;;15.47;47.30;101125.16;10309941;28;20061;-67
2023/05/27 00:46:51;;;;;;;6.82;2.20;;;;;;;15.36;47.26;101117.22;10290465;28;20050;-68
2023/05/27 00:51:52;;;;;;;7.53;2.58;;;;;;;15.33;47.42;101122.84;10305035;28;20058;-68
2023/05/27 00:56:54;;;;;;;6.07;2.70;;;;;;;15.23;47.52;101119.25;10308509;28;20082;-67
2023/05/27 01:01:55;;;;;;;9.50;2.72;;;;;;;15.15;47.91;101118.09;10311695;28;20053;-67
2023/05/27 01:07:29;;;;;;;10.93;2.90;;;;;;;15.16;48.16;101117.13;10305521;28;20516;-67
2023/05/27 01:12:44;;;;;;;10.07;3.33;;;;;;;14.89;48.64;101120.31;10303530;28;20129;-67
2023/05/27 01:17:47;;;;;;;8.43;2.53;;;;;;;14.82;49.05;101125.34;10314668;28;20135;-68
2023/05/27 01:22:52;;;;;;;9.73;2.90;;;;;;;14.83;48.90;101113.66;10308820;28;20088;-67
2023/05/27 01:27:56;;;;;;;11.75;3.08;;;;;;;14.88;48.97;101101.69;10298886;28;20958;-66
2023/05/27 01:33:20;;;;;;;6.90;2.83;;;;;;;15.03;48.81;101119.16;10313718;28;25704;-66
2023/05/27 01:38:24;;;;;;;8.02;3.80;;;;;;;14.94;49.14;101117.25;10315183;28;20054;-67
2023/05/27 01:43:26;;;;;;;8.85;3.50;;;;;;;14.93;49.42;101115.56;10313604;28;20049;-67
2023/05/27 01:48:28;;;;;;;12.00;3.25;;;;;;;14.88;49.04;101102.53;10312636;28;20084;-67
2023/05/27 01:53:30;;;;;;;8.90;3.08;;;;;;;14.87;49.72;101118.75;10311788;28;20050;-66
2023/05/27 01:58:31;;;;;;;9.18;3.40;;;;;;;14.79;49.70;101104.19;10308819;28;20053;-67
2023/05/27 02:03:32;;;;;;;9.75;3.30;;;;;;;14.75;49.60;101108.09;10311464;28;20061;-67
2023/05/27 02:08:34;;;;;;;10.27;3.40;;;;;;;14.73;50.12;101110.06;10311458;28;20046;-67
2023/05/27 02:13:37;;;;;;;9.00;3.40;;;;;;;14.70;50.09;101099.59;10296342;28;20136;-67
2023/05/27 02:18:40;;;;;;;8.32;3.92;;;;;;;14.65;50.29;101100.00;10315615;28;20069;-67
2023/05/27 02:23:42;;;;;;;7.97;3.57;;;;;;;14.63;50.71;101098.41;10295765;28;20061;-67
2023/05/27 02:28:43;;;;;;;8.07;3.35;;;;;;;14.52;50.89;101101.09;10310947;28;20046;-67
2023/05/27 02:33:45;;;;;;;9.27;3.60;;;;;;;14.50;50.65;101099.41;10314064;28;20054;-68
2023/05/27 02:38:46;;;;;;;9.93;4.38;;;;;;;14.39;50.95;101098.59;10314129;28;20166;-68
2023/05/27 02:43:48;;;;;;;9.50;4.22;;;;;;;14.27;51.75;101097.78;10317406;28;20141;-67
2023/05/27 02:48:49;;;;;;;11.75;5.38;;;;;;;14.14;52.17;101090.78;10309521;28;20165;-66
2023/05/27 02:53:51;;;;;;;9.18;4.30;;;;;;;14.22;52.47;101097.34;10306669;28;20054;-67
2023/05/27 02:58:52;;;;;;;8.20;4.53;;;;;;;14.22;52.42;101100.84;10307020;28;20256;-67
2023/05/27 03:03:54;;;;;;;12.43;4.70;;;;;;;14.23;52.15;101085.63;10296092;28;20069;-67
2023/05/27 03:08:55;;;;;;;9.02;4.20;;;;;;;14.06;52.81;101082.50;10308869;28;20086;-67
2023/05/27 03:13:57;;;;;;;8.73;3.90;;;;;;;14.10;53.14;101080.47;10310265;28;20049;-67
2023/05/27 03:18:58;;;;;;;8.77;3.75;;;;;;;14.10;52.91;101088.50;10299492;28;20038;-67
2023/05/27 03:24:00;;;;;;;13.73;4.82;;;;;;;14.03;53.17;101088.13;10303692;28;20145;-66
2023/05/27 03:29:01;;;;;;;10.48;4.15;;;;;;;13.94;53.39;101079.00;10308051;28;20057;-67
2023/05/27 03:34:02;;;;;;;12.80;3.53;;;;;;;14.05;53.34;101086.19;10299732;28;20137;-67
2023/05/27 03:39:04;;;;;;;8.95;3.85;;;;;;;13.99;53.45;101076.00;10298368;28;20066;-68
2023/05/27 03:44:05;;;;;;;9.85;4.70;;;;;;;13.93;53.43;101073.78;10307760;28;20069;-67
2023/05/27 03:49:07;;;;;;;10.13;3.85;;;;;;;13.90;53.72;101074.91;10304764;28;20130;-71
2023/05/27 03:54:09;;;;;;;12.70;5.13;;;;;;;13.90;53.91;101082.94;10299480;28;20141;-68
2023/05/27 03:59:11;;;;;;;7.72;3.60;;;;;;;13.88;53.96;101081.34;10307453;28;20058;-67
2023/05/27 04:04:13;;;;;;;8.80;3.58;;;;;;;13.77;55.15;101080.41;10292042;28;20127;-66
2023/05/27 04:09:15;;;;;;;8.73;3.60;;;;;;;13.78;54.63;101082.09;10292902;28;20111;-67
2023/05/27 04:14:16;;;;;;;12.20;4.57;;;;;;;13.66;54.88;101071.53;10308084;28;20136;-66
2023/05/27 04:19:18;;;;;;;10.70;4.35;;;;;;;13.76;54.43;101073.34;10306042;28;20322;-68
2023/05/27 04:24:19;;;;;;;9.77;3.92;;;;;;;13.71;54.58;101080.06;10292621;28;20108;-69
2023/05/27 04:29:22;;;;;;;9.70;3.97;;;;;;;13.50;55.42;101062.06;10304746;28;20101;-67
2023/05/27 04:34:23;;;;;;;9.27;3.88;;;;;;;13.48;55.89;101079.22;10290960;28;20042;-67
2023/05/27 04:39:25;;;;;;;13.05;3.97;;;;;;;13.58;55.39;101085.53;10331348;28;20050;-68
2023/05/27 04:44:28;;;;;;;10.05;4.30;;;;;;;13.53;55.03;101077.03;10313299;28;20042;-68
2023/05/27 04:49:30;;;;;;;9.05;3.60;;;;;;;13.66;55.57;101082.22;10296940;28;20076;-67
2023/05/27 04:54:31;;;;;;;11.07;4.45;;;;;;;13.76;55.67;101097.41;10302397;28;20145;-67
2023/05/27 04:59:46;;;;;;;7.78;3.60;;;;;;;13.87;55.17;101093.03;10325932;28;20050;-67
2023/05/27 05:04:48;;;;;;;7.28;3.78;;;;;;;13.88;54.66;101086.72;10318622;28;20051;-66
2023/05/27 05:09:49;;;;;;;9.73;4.10;;;;;;;13.85;55.30;101076.25;10301946;28;20050;-67
2023/05/27 05:14:51;;;;;;;12.77;4.07;;;;;;;13.97;54.78;101086.78;10308540;28;20082;-66
2023/05/27 05:19:53;;;;;;;7.88;3.58;;;;;;;14.03;55.23;101090.81;10311131;28;20058;-67
2023/05/27 05:24:54;;;;;;;9.57;4.68;;;;;;;14.05;55.02;101088.88;10312921;28;20050;-66
2023/05/27 05:29:56;;;;;;;8.35;4.32;;;;;;;14.12;55.15;101090.03;10310704;28;20081;-66
2023/05/27 05:34:57;;;;;;;11.85;4.10;;;;;;;14.04;55.72;101086.31;10312740;28;20066;-67
2023/05/27 05:39:59;;;;;;;6.63;3.53;;;;;;;14.20;55.43;101102.81;10312519;28;20313;-68
2023/05/27 05:45:00;;;;;;;9.43;4.07;;;;;;;14.38;55.20;101110.28;10312530;28;20116;-68
2023/05/27 05:50:01;;;;;;;6.00;3.65;;;;;;;14.54;54.58;101110.72;10310173;28;20489;-67
2023/05/27 05:55:03;;;;;;;10.52;4.13;;;;;;;14.56;54.32;101094.50;10299888;28;20567;-67
2023/05/27 06:00:07;;;;;;;7.22;3.25;;;;;;;14.62;54.19;101094.03;10314829;28;20050;-66
2023/05/27 06:05:09;;;;;;;10.52;3.50;;;;;;;14.79;53.58;101106.84;10311472;28;20753;-68
2023/05/27 06:10:12;;;;;;;10.43;4.78;;;;;;;14.81;53.54;101107.56;10310696;28;20062;-69
2023/05/27 06:15:13;;;;;;;7.53;3.38;;;;;;;14.98;53.10;101111.50;10298534;28;20054;-69
2023/05/27 06:20:15;;;;;;;10.52;4.32;;;;;;;14.97;53.30;101111.63;10311757;28;20058;-69
2023/05/27 06:25:16;;;;;;;8.43;3.70;;;;;;;15.11;53.07;101103.25;10313522;28;20555;-68
2023/05/27 06:30:18;;;;;;;7.75;3.40;;;;;;;15.37;52.05;101105.50;10306087;28;20050;-68
2023/05/27 06:35:19;;;;;;;10.95;3.85;;;;;;;15.43;51.54;101088.84;10310581;28;20054;-68
2023/05/27 06:40:21;;;;;;;7.07;3.13;;;;;;;15.49;51.45;101092.84;10311770;28;20488;-67
2023/05/27 06:45:22;;;;;;;9.27;3.47;;;;;;;15.37;51.83;101092.06;10312554;28;20073;-68
2023/05/27 06:50:24;;;;;;;7.97;3.60;;;;;;;15.63;51.29;101094.31;10309974;28;20247;-69
2023/05/27 06:55:25;;;;;;;9.20;3.75;;;;;;;15.86;50.62;101082.38;10316908;28;20219;-69
2023/05/27 07:00:27;;;;;;;9.77;3.90;;;;;;;16.06;50.64;101082.44;10322468;28;20057;-70
2023/05/27 07:05:28;;;;;;;8.48;2.85;;;;;;;16.23;50.16;101087.13;10310720;28;20214;-68
2023/05/27 07:10:29;;;;;;;7.75;3.45;;;;;;;16.41;49.86;101086.44;10307917;28;20185;-68
2023/05/27 07:15:31;;;;;;;9.95;3.20;;;;;;;16.54;49.56;101068.19;10305451;28;20338;-69
2023/05/27 07:20:33;;;;;;;5.63;3.78;;;;;;;16.72;49.60;101056.69;10305828;28;20066;-69
2023/05/27 07:25:35;;;;;;;8.70;3.65;;;;;;;16.89;48.71;101072.13;10297306;28;20398;-69
2023/05/27 07:30:37;;;;;;;10.38;3.58;;;;;;;17.07;48.74;101057.91;10306098;28;20094;-71
2023/05/27 07:35:40;;;;;;;6.72;2.90;;;;;;;17.17;47.98;101050.66;10308055;28;20159;-69
2023/05/27 07:40:41;;;;;;;12.52;3.88;;;;;;;17.41;48.10;101049.28;10296494;28;20501;-71
2023/05/27 07:45:43;;;;;;;7.97;3.47;;;;;;;17.64;47.63;101047.91;10290512;28;20140;-69
2023/05/27 07:50:45;;;;;;;9.05;3.63;;;;;;;17.81;47.58;101048.91;10291248;28;20069;-69
2023/05/27 07:55:46;;;;;;;7.78;3.42;;;;;;;17.89;47.30;101039.25;10295541;28;20178;-68
2023/05/27 08:00:48;;;;;;;9.32;3.10;;;;;;;18.05;47.04;101030.53;10306674;28;20046;-68
2023/05/27 08:05:50;;;;;;;8.30;2.58;;;;;;;18.28;46.71;101037.13;10305985;28;20558;-70
2023/05/27 08:10:51;;;;;;;8.43;3.78;;;;;;;18.42;45.64;101029.47;10304028;28;20062;-69
2023/05/27 08:15:56;;;;;;;8.27;3.38;;;;;;;18.52;45.41;101019.47;10311191;28;20095;-68
2023/05/27 08:20:58;;;;;;;6.63;3.05;;;;;;;18.68;45.77;101016.88;10307599;28;20064;-68
2023/05/27 08:25:59;;;;;;;8.65;3.67;;;;;;;18.75;45.21;101013.53;10310249;28;20050;-68
2023/05/27 08:31:01;;;;;;;7.15;3.40;;;;;;;18.85;45.71;100996.28;10307212;28;20061;-71
2023/05/27 08:36:02;;;;;;;8.98;3.03;;;;;;;19.17;45.02;100993.91;10306112;28;20057;-70
2023/05/27 08:41:04;;;;;;;6.13;2.70;;;;;;;19.45;45.00;100991.84;10305597;28;20058;-69
2023/05/27 08:46:07;;;;;;;10.13;3.20;;;;;;;19.64;44.20;100992.59;10294457;28;20096;-69
2023/05/27 08:51:09;;;;;;;8.75;2.92;;;;;;;19.81;44.08;100988.09;10309680;28;20073;-69
2023/05/27 08:56:14;;;;;;;5.97;3.08;;;;;;;20.04;43.34;100972.06;10303240;28;20487;-67
2023/05/27 09:01:18;;;;;;;7.50;3.50;;;;;;;20.30;42.65;100978.13;10287526;28;20053;-67
2023/05/27 09:06:20;;;;;;;8.80;3.10;;;;;;;20.51;42.27;100968.66;10305781;28;20334;-67
2023/05/27 09:11:23;;;;;;;8.30;3.35;;;;;;;20.75;41.83;100967.78;10297604;28;20552;-68
2023/05/27 09:16:25;;;;;;;6.18;2.60;;;;;;;21.01;41.52;100959.41;10299628;28;20147;-66
2023/05/27 09:21:26;;;;;;;5.50;2.50;;;;;;;21.17;39.04;100950.41;10309105;28;20045;-68
2023/05/27 09:26:28;;;;;;;10.57;2.60;;;;;;;21.32;39.16;100949.66;10307069;28;20227;-67
2023/05/27 09:31:29;;;;;;;6.60;2.83;;;;;;;21.50;39.69;100950.25;10307887;28;20468;-69
2023/05/27 09:36:31;;;;;;;5.10;2.28;;;;;;;21.61;39.31;100934.63;10317266;28;20500;-68
2023/05/27 09:41:33;;;;;;;7.07;3.20;;;;;;;21.83;38.69;100936.50;10313579;28;20283;-68
2023/05/27 09:46:35;;;;;;;6.30;2.47;;;;;;;22.10;38.30;100934.25;10302615;28;20077;-68
2023/05/27 09:51:40;;;;;;;8.83;3.00;;;;;;;22.15;38.33;100925.56;10315045;28;20070;-67
2023/05/27 09:56:45;;;;;;;6.28;2.40;;;;;;;22.42;37.55;100918.72;10314530;28;20505;-68
2023/05/27 10:01:48;;;;;;;7.80;3.30;;;;;;;22.63;37.66;100909.84;10310406;28;20251;-68
2023/05/27 10:06:50;;;;;;;6.78;3.00;;;;;;;22.87;37.05;100916.84;10293478;28;20049;-70
2023/05/27 10:11:53;;;;;;;7.78;2.92;;;;;;;23.13;37.03;100904.66;10311361;28;20073;-68
2023/05/27 10:16:57;;;;;;;8.65;2.90;;;;;;;23.29;36.70;100893.56;10308294;28;20119;-70
2023/05/27 10:22:10;;;;;;;8.40;2.85;;;;;;;23.35;36.19;100885.72;10308671;28;20359;-66
2023/05/27 10:27:11;;;;;;;7.03;2.90;;;;;;;23.51;36.28;100895.47;10308822;28;20341;-67
2023/05/27 10:32:13;;;;;;;6.05;2.80;;;;;;;23.73;35.96;100880.84;10313346;28;20104;-70
2023/05/27 10:37:21;;;;;;;7.15;2.35;;;;;;;23.89;35.20;100879.78;10312648;28;20404;-68
2023/05/27 10:42:25;;;;;;;7.50;2.47;;;;;;;24.02;34.83;100864.59;10308087;28;20038;-68
2023/05/27 10:47:30;;;;;;;5.63;2.60;;;;;;;24.11;35.02;100868.84;10291647;28;20254;-68
2023/05/27 10:52:36;;;;;;;9.43;3.15;;;;;;;24.29;34.10;100863.78;10308440;28;20093;-67
2023/05/27 10:57:38;;;;;;;8.05;2.67;;;;;;;24.28;34.70;100847.66;10314158;28;20913;-69
2023/05/27 11:02:40;;;;;;;6.82;3.05;;;;;;;24.52;33.51;100859.91;10313544;28;20433;-70
2023/05/27 11:07:42;;;;;;;6.07;2.77;;;;;;;24.65;32.62;100843.69;10297835;28;20050;-70
2023/05/27 11:12:45;;;;;;;7.78;2.67;;;;;;;24.69;33.65;100839.50;10299499;28;20060;-67
2023/05/27 11:17:46;;;;;;;6.75;3.47;;;;;;;24.77;32.88;100851.25;10284251;28;20046;-69
2023/05/27 11:22:50;;;;;;;7.10;2.80;;;;;;;24.81;33.10;100837.03;10300876;28;20088;-69
2023/05/27 11:27:51;;;;;;;;;;;;;;;24.97;32.81;100824.13;10310095;28;20050;-68
2023/05/27 11:33:02;;;;;;;5.55;2.63;;;;;;;25.11;33.39;100808.66;10309801;28;20385;-69
2023/05/27 11:38:04;;;;;;;7.22;3.08;;;;;;;25.37;32.50;100797.84;10293736;28;20046;-68
2023/05/27 11:43:05;;;;;;;6.60;3.00;;;;;;;25.53;32.01;100793.84;10298585;28;20046;-68
2023/05/27 11:48:08;;;;;;;6.85;2.28;;;;;;;25.54;29.95;100787.38;10317901;28;20319;-69
2023/05/27 11:53:10;;;;;;;6.90;2.53;;;;;;;25.57;30.64;100777.94;10341683;28;20058;-67
2023/05/27 11:58:11;;;;;;;6.55;2.53;;;;;;;25.50;31.28;100768.91;10310601;28;20050;-68
2023/05/27 12:03:13;;;;;;;7.25;2.75;;;;;;;25.43;30.96;100765.34;10308496;28;20122;-69
2023/05/27 12:08:14;;;;;;;6.28;2.72;;;;;;;25.47;31.37;100763.88;10306897;28;21967;-68
2023/05/27 12:13:16;;;;;;;8.15;2.28;;;;;;;25.51;30.43;100748.81;10299125;28;20058;-68
2023/05/27 12:18:18;;;;;;;5.82;3.15;;;;;;;25.59;29.46;100759.47;10306782;28;20214;-68
2023/05/27 12:23:19;;;;;;;8.23;3.13;;;;;;;25.58;29.77;100744.16;10305277;28;20057;-68
2023/05/27 12:28:21;;;;;;;5.47;2.40;;;;;;;25.54;29.18;100732.03;10306832;28;20074;-68
2023/05/27 12:33:23;;;;;;;6.50;2.50;;;;;;;25.51;30.65;100727.81;10303749;28;20137;-68
2023/05/27 12:38:24;;;;;;;5.53;3.03;;;;;;;25.52;29.52;100725.94;10306796;28;20084;-68
2023/05/27 12:43:26;;;;;;;4.85;2.65;;;;;;;25.49;30.17;100720.91;10292381;28;20621;-65
2023/05/27 12:48:27;;;;;;;4.70;2.17;;;;;;;25.51;29.45;100707.91;10309520;28;20069;-68
2023/05/27 12:53:29;;;;;;;5.43;2.78;;;;;;;25.53;28.97;100698.47;10307361;28;20054;-68
2023/05/27 12:58:30;;;;;;;4.63;2.33;;;;;;;25.55;29.01;100693.66;10304871;28;20099;-68
2023/05/27 13:03:31;;;;;;;5.55;2.17;;;;;;;25.47;29.03;100685.69;10305825;28;20057;-68
2023/05/27 13:08:33;;;;;;;4.28;2.50;;;;;;;25.40;28.40;100677.53;10294870;28;20528;-69
2023/05/27 13:13:34;;;;;;;4.75;2.67;;;;;;;25.53;28.86;100675.84;10313429;28;20061;-68
2023/05/27 13:18:36;;;;;;;7.10;2.85;;;;;;;25.55;29.78;100676.44;10298241;28;20485;-69
2023/05/27 13:23:38;;;;;;;4.38;2.30;;;;;;;25.51;28.89;100673.31;10314260;28;20640;-68
2023/05/27 13:28:40;;;;;;;4.78;2.78;;;;;;;25.46;28.71;100664.09;10302178;28;20061;-69
2023/05/27 13:33:41;;;;;;;6.47;2.72;;;;;;;25.32;29.30;100661.38;10310593;28;20354;-69
2023/05/27 13:38:43;;;;;;;5.78;2.35;;;;;;;25.30;29.28;100660.78;10306444;28;20266;-68
2023/05/27 13:43:44;;;;;;;5.78;2.63;;;;;;;25.27;29.40;100655.72;10313685;28;20069;-68
2023/05/27 13:48:46;;;;;;;5.28;3.08;;;;;;;25.30;29.04;100644.44;10312308;28;20046;-69
2023/05/27 13:53:48;;;;;;;4.38;2.10;;;;;;;25.22;29.56;100633.69;10311165;28;20108;-69
2023/05/27 13:58:51;;;;;;;4.00;2.27;;;;;;;25.21;29.07;100630.16;10316273;28;20144;-68
2023/05/27 14:03:52;;;;;;;8.18;2.60;;;;;;;25.06;28.22;100624.94;10302899;28;20721;-69
2023/05/27 14:08:54;;;;;;;7.15;2.70;;;;;;;25.08;29.29;100619.25;10323256;28;20848;-69
2023/05/27 14:13:56;;;;;;;5.38;2.33;;;;;;;25.01;29.31;100611.13;10301377;28;20293;-68
2023/05/27 14:18:57;;;;;;;5.03;2.65;;;;;;;24.90;29.42;100603.56;10315865;28;20553;-69
2023/05/27 14:23:59;;;;;;;6.20;2.38;;;;;;;24.99;29.41;100599.56;10310509;28;20050;-67
2023/05/27 14:29:01;;;;;;;5.83;2.00;;;;;;;24.95;29.70;100598.34;10304404;28;20046;-68
2023/05/27 14:34:02;;;;;;;7.43;2.58;;;;;;;24.95;30.29;100592.91;10299595;28;20374;-68
2023/05/27 14:39:05;;;;;;;4.03;2.22;;;;;;;24.76;30.39;100585.56;10311179;28;20105;-67
2023/05/27 14:44:07;;;;;;;5.88;2.35;;;;;;;24.73;29.50;100583.28;10309846;28;20046;-69
2023/05/27 14:49:09;;;;;;;5.53;2.35;;;;;;;24.65;29.59;100576.97;10310197;28;20053;-69
2023/05/27 14:54:10;;;;;;;5.35;2.42;;;;;;;24.68;29.65;100564.81;10317511;28;20058;-68
2023/05/27 14:59:11;;;;;;;4.68;2.20;;;;;;;24.66;29.91;100567.75;10316247;28;20551;-67
2023/05/27 15:04:13;;;;;;;6.15;2.30;;;;;;;24.62;30.70;100554.78;10319119;28;20129;-70
2023/05/27 15:09:15;;;;;;;4.78;2.47;;;;;;;24.55;30.21;100549.31;10314437;28;20120;-68
2023/05/27 15:14:16;;;;;;;5.05;2.55;;;;;;;24.54;30.15;100561.22;10313169;28;20167;-72
2023/05/27 15:19:17;;;;;;;4.65;2.40;;;;;;;24.58;29.30;100557.09;10317322;28;20050;-69
2023/05/27 15:24:19;;;;;;;6.00;2.42;;;;;;;24.57;30.09;100554.53;10304566;28;20465;-67
2023/05/27 15:29:21;;;;;;;3.88;2.08;;;;;;;24.55;30.09;100549.31;10305683;28;20489;-68
2023/05/27 15:34:23;;;;;;;4.13;2.38;;;;;;;24.48;30.65;100537.56;10315337;28;20058;-66
2023/05/27 15:39:25;;;;;;;4.72;2.40;;;;;;;24.43;30.01;100540.09;10315643;28;20459;-69
2023/05/27 15:44:26;;;;;;;4.05;1.92;;;;;;;24.35;29.58;100527.53;10315790;28;20124;-74
2023/05/27 15:49:28;;;;;;;4.22;2.40;;;;;;;24.38;30.30;100521.69;10312229;28;20054;-68
2023/05/27 15:54:29;;;;;;;6.22;3.05;;;;;;;24.34;30.80;100526.69;10313197;28;20054;-63
2023/05/27 15:59:31;;;;;;;5.75;2.05;;;;;;;24.34;30.69;100515.81;10319432;28;20069;-71
2023/05/27 16:04:33;;;;;;;5.63;2.70;;;;;;;24.35;30.43;100509.31;10316914;28;20178;-69
2023/05/27 16:09:34;;;;;;;4.40;2.17;;;;;;;24.37;30.90;100502.84;10311737;28;20104;-67
2023/05/27 16:14:36;;;;;;;3.97;2.33;;;;;;;24.33;30.73;100492.34;10288016;28;20570;-66
2023/05/27 16:19:37;;;;;;;4.40;2.80;;;;;;;24.37;30.85;100508.28;10310773;28;20149;-70
2023/05/27 16:24:38;;;;;;;5.20;2.47;;;;;;;24.30;31.10;100492.78;10317116;28;20049;-72
2023/05/27 16:29:40;;;;;;;4.47;2.30;;;;;;;24.30;30.26;100498.22;10313164;28;20097;-68
2023/05/27 16:34:41;;;;;;;8.32;2.65;;;;;;;24.24;31.09;100493.59;10311112;28;20042;-70
2023/05/27 16:39:43;;;;;;;4.35;1.95;;;;;;;24.23;31.09;100491.97;10311978;28;20103;-67
2023/05/27 16:44:45;;;;;;;5.18;2.70;;;;;;;24.18;30.96;100487.16;10307182;28;20472;-66
2023/05/27 16:49:47;;;;;;;5.53;2.25;;;;;;;24.16;31.23;100480.22;10309371;28;20568;-68
2023/05/27 16:54:49;;;;;;;5.63;2.47;;;;;;;24.07;31.21;100459.72;10318137;28;21559;-65
2023/05/27 16:59:50;;;;;;;4.75;2.55;;;;;;;24.12;31.16;100479.78;10317839;28;20121;-66
2023/05/27 17:04:51;;;;;;;7.25;2.30;;;;;;;24.05;31.01;100470.81;10315644;28;20136;-67
2023/05/27 17:09:53;;;;;;;6.07;2.85;;;;;;;23.99;31.04;100467.03;10316279;28;20254;-67
2023/05/27 17:14:54;;;;;;;4.85;2.50;;;;;;;23.99;31.11;100469.75;10315088;28;20081;-67
2023/05/27 17:19:55;;;;;;;5.05;2.28;;;;;;;23.97;31.42;100462.84;10314060;28;20056;-68
2023/05/27 17:24:57;;;;;;;5.45;2.38;;;;;;;23.95;31.17;100464.94;10312663;28;20062;-66
2023/05/27 17:29:58;;;;;;;6.13;2.63;;;;;;;23.89;30.63;100468.47;10302187;28;20054;-64
2023/05/27 17:35:00;;;;;;;6.32;2.38;;;;;;;23.79;30.53;100464.22;10302810;28;20037;-69
2023/05/27 17:40:05;;;;;;;3.70;2.38;;;;;;;23.77;30.81;100462.78;10312498;28;20046;-66
2023/05/27 17:45:07;;;;;;;6.05;2.75;;;;;;;23.68;30.97;100459.41;10315962;28;20046;-68
2023/05/27 17:50:09;;;;;;;6.57;2.40;;;;;;;23.63;31.65;100454.59;10313406;28;20061;-67
2023/05/27 17:55:11;;;;;;;4.43;2.33;;;;;;;23.55;32.53;100456.66;10313433;28;20066;-70
2023/05/27 18:00:13;;;;;;;5.90;2.80;;;;;;;23.46;32.99;100450.56;10314149;28;20156;-65
2023/05/27 18:05:14;;;;;;;5.43;3.00;;;;;;;23.44;33.55;100458.06;10311435;28;20603;-66
2023/05/27 18:10:20;;;;;;;5.15;2.97;;;;;;;23.38;34.27;100456.19;10314644;28;20439;-68
2023/05/27 18:15:22;;;;;;;6.60;3.25;;;;;;;23.29;34.38;100458.22;10306279;28;20104;-67
2023/05/27 18:20:23;;;;;;;8.95;3.80;;;;;;;23.24;34.95;100468.84;10315040;28;20052;-68
2023/05/27 18:25:25;;;;;;;6.90;4.28;;;;;;;23.16;35.41;100458.16;10314536;28;20440;-69
2023/05/27 18:30:28;;;;;;;7.20;4.88;;;;;;;23.09;35.59;100463.53;10313573;28;20046;-68
2023/05/27 18:35:29;;;;;;;6.20;4.43;;;;;;;23.01;35.71;100471.81;10313090;28;20054;-69
2023/05/27 18:40:35;;;;;;;7.20;4.07;;;;;;;22.89;35.99;100469.66;10333892;28;20053;-66
2023/05/27 18:45:54;;;;;;;7.55;3.72;;;;;;;22.77;36.64;100477.53;10314682;28;20133;-68
2023/05/27 18:51:01;;;;;;;4.82;3.70;;;;;;;22.70;36.92;100481.22;10299123;28;20054;-67
2023/05/27 18:56:03;;;;;;;7.03;4.55;;;;;;;22.59;36.89;100486.19;10312008;28;20045;-65
2023/05/27 19:01:04;;;;;;;8.25;4.57;;;;;;;22.52;37.53;100488.00;10308479;28;20057;-69
2023/05/27 19:06:06;;;;;;;6.60;4.22;;;;;;;22.46;37.75;100499.63;10309288;28;20056;-66
2023/05/27 19:11:07;;;;;;;7.32;4.20;;;;;;;22.33;38.08;100502.22;10312076;28;20085;-68
2023/05/27 19:16:08;;;;;;;5.38;3.70;;;;;;;22.22;38.17;100496.25;10300540;28;20477;-70
2023/05/27 19:21:11;;;;;;;9.75;4.38;;;;;;;22.20;38.14;100497.47;10309261;28;20061;-67
2023/05/27 19:26:12;;;;;;;5.03;3.88;;;;;;;22.08;38.73;100499.84;10308108;28;20050;-68
2023/05/27 19:31:14;;;;;;;6.75;4.22;;;;;;;21.94;38.81;100495.34;10297581;28;20050;-68
2023/05/27 19:36:15;;;;;;;10.98;4.43;;;;;;;21.89;39.07;100506.78;10309473;28;20492;-65
2023/05/27 19:41:17;;;;;;;9.38;3.80;;;;;;;21.82;39.52;100509.38;10310664;28;20158;-65
2023/05/27 19:46:18;;;;;;;7.43;4.40;;;;;;;21.77;39.34;100516.41;10298148;28;20189;-69
2023/05/27 19:51:20;;;;;;;7.20;4.97;;;;;;;21.68;39.66;100515.69;10296789;28;20122;-65
2023/05/27 19:56:24;;;;;;;5.80;4.00;;;;;;;21.62;40.22;100516.44;10311657;28;20131;-68
2023/05/27 20:01:25;;;;;;;6.67;4.37;;;;;;;21.47;40.39;100522.69;10299545;28;20174;-68
2023/05/27 20:06:27;;;;;;;6.63;3.90;;;;;;;21.38;40.57;100515.72;10309753;28;20339;-68
2023/05/27 20:11:28;;;;;;;7.53;4.18;;;;;;;21.26;40.97;100522.59;10308510;28;20552;-65
2023/05/27 20:16:30;;;;;;;6.45;4.10;;;;;;;21.19;40.69;100520.66;10293271;28;20061;-68
2023/05/27 20:21:31;;;;;;;5.60;3.58;;;;;;;21.14;40.84;100523.09;10318500;28;20070;-71
2023/05/27 20:26:33;;;;;;;6.30;3.38;;;;;;;21.02;41.71;100521.88;10309410;28;20631;-65
2023/05/27 20:31:35;;;;;;;6.78;3.97;;;;;;;20.99;42.00;100520.38;10305592;28;20061;-70
2023/05/27 20:36:36;;;;;;;8.55;4.00;;;;;;;20.96;42.05;100528.03;10305091;28;20054;-68
2023/05/27 20:41:38;;;;;;;8.70;3.78;;;;;;;20.83;42.41;100529.47;10310347;28;20051;-69
2023/05/27 20:46:41;;;;;;;7.60;3.88;;;;;;;20.75;42.70;100537.69;10308562;28;20053;-69
2023/05/27 20:51:43;;;;;;;5.30;3.25;;;;;;;20.64;43.42;100527.28;10304830;28;20042;-68
2023/05/27 20:56:44;;;;;;;7.05;4.07;;;;;;;20.51;43.52;100519.78;10324168;28;20069;-69
2023/05/27 21:01:46;;;;;;;5.20;3.70;;;;;;;20.46;43.37;100524.88;10309754;28;20108;-69
2023/05/27 21:06:47;;;;;;;7.07;3.80;;;;;;;20.35;43.15;100528.88;10303144;28;20053;-69
2023/05/27 21:11:49;;;;;;;7.95;3.70;;;;;;;20.26;43.00;100517.28;10298980;28;20553;-70
2023/05/27 21:16:50;;;;;;;7.00;4.05;;;;;;;20.18;42.62;100530.03;10294394;28;20145;-67
2023/05/27 21:21:53;;;;;;;6.15;4.13;;;;;;;20.21;42.68;100516.16;10303859;28;20657;-68
2023/05/27 21:26:55;;;;;;;6.18;4.00;;;;;;;20.12;42.51;100521.59;10305850;28;20058;-68
2023/05/27 21:31:57;;;;;;;7.28;3.97;;;;;;;19.96;42.52;100521.72;10308404;28;20719;-68
2023/05/27 21:36:59;;;;;;;8.32;3.70;;;;;;;19.84;42.74;100504.22;10299978;28;20053;-66
2023/05/27 21:42:01;;;;;;;8.10;3.45;;;;;;;19.80;43.21;100514.53;10296470;28;20062;-67
2023/05/27 21:47:03;;;;;;;9.63;3.92;;;;;;;19.72;43.28;100511.84;10314023;28;20606;-68
2023/05/27 21:52:04;;;;;;;10.52;4.20;;;;;;;19.70;43.50;100512.03;10313679;28;20553;-65
2023/05/27 21:57:06;;;;;;;6.90;3.88;;;;;;;19.57;43.38;100506.38;10309860;28;20335;-68
2023/05/27 22:02:08;;;;;;;6.75;3.75;;;;;;;19.55;43.42;100511.13;10311560;28;20120;-70
2023/05/27 22:07:09;;;;;;;6.95;3.97;;;;;;;19.52;43.47;100508.78;10313293;28;20373;-70
2023/05/27 22:12:12;;;;;;;8.02;3.97;;;;;;;19.38;43.71;100504.91;10311655;28;20054;-67
2023/05/27 22:17:14;;;;;;;6.50;3.80;;;;;;;19.36;43.88;100515.91;10311855;28;20054;-64
2023/05/27 22:22:15;;;;;;;6.75;4.00;;;;;;;19.32;44.00;100506.50;10293660;28;20341;-67
2023/05/27 22:27:16;;;;;;;5.32;3.88;;;;;;;19.26;43.95;100509.88;10308223;28;20531;-69
2023/05/27 22:32:18;;;;;;;6.80;4.03;;;;;;;19.23;44.13;100504.81;10298788;28;20073;-69
2023/05/27 22:37:19;;;;;;;6.95;4.03;;;;;;;19.14;44.05;100511.25;10313529;28;20260;-70
2023/05/27 22:42:20;;;;;;;6.68;3.63;;;;;;;19.07;44.02;100503.84;10311114;28;20069;-64
2023/05/27 22:47:22;;;;;;;6.20;3.40;;;;;;;19.04;43.97;100501.50;10295956;28;20060;-66
2023/05/27 22:52:24;;;;;;;5.75;4.18;;;;;;;18.98;44.33;100494.09;10311265;28;20182;-70
2023/05/27 22:57:26;;;;;;;5.75;3.13;;;;;;;18.83;44.35;100487.72;10299416;28;20278;-68
2023/05/27 23:02:27;;;;;;;7.88;4.03;;;;;;;18.83;44.33;100493.09;10300503;28;20472;-71
2023/05/27 23:07:29;;;;;;;6.78;2.70;;;;;;;18.75;44.55;100482.31;10309878;28;20052;-69